Weather at Hardrives Delta Nr 3 Helistop

Public forecast

Using degrees Fahrenheit for public forecast. Weather courtesy of forecast.io.

Closest aviation weather report (METAR) to Hardrives Delta Nr 3 Helistop

Closest report is Boca Raton Airport, 3.3 nm (6.2 km) SSW. Retrieved 2020/11/29 02:53 UTC (42 minutes ago):

KBCT 290253Z 12003KT 10SM CLR 22/19 A3005

Closest aviation forecast (TAF) to Hardrives Delta Nr 3 Helistop

Forecast is more than 12 hours old.

Closest forecast is Boca Raton Airport, 3.3 nm (6.2 km) SSW. Retrieved 2020/02/03 18:20 UTC (10 months ago):

TAF KBCT 031720Z 0318/0418 12005KT P6SM SKC FM040000 VRB03KT P6SM SKC FM041400 16011KT P6SM FEW030